sensor_id;sensor_type;location;lat;lon;timestamp;P1;durP1;ratioP1;P2;durP2;ratioP2
19560;SDS011;9927;47.792;10.616;2023-12-07T04:01:49;13.57;;;12.17;;
19560;SDS011;9927;47.792;10.616;2023-12-07T04:04:16;14.77;;;12.73;;
19560;SDS011;9927;47.792;10.616;2023-12-07T04:06:43;14.80;;;13.27;;
19560;SDS011;9927;47.792;10.616;2023-12-07T04:09:11;19.20;;;15.43;;
19560;SDS011;9927;47.792;10.616;2023-12-07T04:11:38;18.93;;;14.90;;
19560;SDS011;9927;47.792;10.616;2023-12-07T04:14:05;20.30;;;15.03;;
19560;SDS011;9927;47.792;10.616;2023-12-07T04:16:32;15.63;;;13.53;;
19560;SDS011;9927;47.792;10.616;2023-12-07T04:18:59;16.43;;;13.70;;
19560;SDS011;9927;47.792;10.616;2023-12-07T04:21:27;16.60;;;12.00;;
19560;SDS011;9927;47.792;10.616;2023-12-07T04:23:54;14.20;;;11.57;;
19560;SDS011;9927;47.792;10.616;2023-12-07T04:26:21;16.67;;;13.67;;
19560;SDS011;9927;47.792;10.616;2023-12-07T04:28:48;14.90;;;12.73;;
19560;SDS011;9927;47.792;10.616;2023-12-07T04:31:16;14.37;;;12.37;;
19560;SDS011;9927;47.792;10.616;2023-12-07T04:33:43;14.50;;;12.40;;
19560;SDS011;9927;47.792;10.616;2023-12-07T04:36:10;15.67;;;11.97;;
19560;SDS011;9927;47.792;10.616;2023-12-07T04:38:38;11.80;;;10.60;;
19560;SDS011;9927;47.792;10.616;2023-12-07T04:41:05;29.27;;;9.90;;
19560;SDS011;9927;47.792;10.616;2023-12-07T04:43:32;21.13;;;10.03;;
19560;SDS011;9927;47.792;10.616;2023-12-07T04:46:00;36.33;;;12.03;;
19560;SDS011;9927;47.792;10.616;2023-12-07T04:48:27;60.93;;;10.27;;
19560;SDS011;9927;47.792;10.616;2023-12-07T04:50:54;74.30;;;10.13;;
19560;SDS011;9927;47.792;10.616;2023-12-07T04:53:22;109.30;;;13.10;;
19560;SDS011;9927;47.792;10.616;2023-12-07T04:55:51;200.97;;;18.07;;
19560;SDS011;9927;47.792;10.616;2023-12-07T04:58:18;130.73;;;15.73;;
19560;SDS011;9927;47.792;10.616;2023-12-07T05:00:45;166.33;;;15.07;;
19560;SDS011;9927;47.792;10.616;2023-12-07T05:03:12;48.80;;;9.23;;
19560;SDS011;9927;47.792;10.616;2023-12-07T05:05:40;90.57;;;10.03;;
19560;SDS011;9927;47.792;10.616;2023-12-07T05:08:08;34.97;;;10.20;;
19560;SDS011;9927;47.792;10.616;2023-12-07T05:10:35;25.87;;;8.90;;
19560;SDS011;9927;47.792;10.616;2023-12-07T05:13:02;52.00;;;10.57;;
19560;SDS011;9927;47.792;10.616;2023-12-07T05:15:29;30.70;;;8.60;;
19560;SDS011;9927;47.792;10.616;2023-12-07T05:17:57;57.37;;;10.73;;
19560;SDS011;9927;47.792;10.616;2023-12-07T05:20:24;15.13;;;9.43;;
19560;SDS011;9927;47.792;10.616;2023-12-07T05:22:53;20.10;;;8.87;;
19560;SDS011;9927;47.792;10.616;2023-12-07T05:25:20;11.30;;;8.23;;
19560;SDS011;9927;47.792;10.616;2023-12-07T05:27:48;18.30;;;9.33;;
19560;SDS011;9927;47.792;10.616;2023-12-07T05:30:15;39.13;;;10.10;;
19560;SDS011;9927;47.792;10.616;2023-12-07T05:32:42;29.17;;;11.50;;
19560;SDS011;9927;47.792;10.616;2023-12-07T05:35:10;26.90;;;10.47;;
19560;SDS011;9927;47.792;10.616;2023-12-07T05:37:37;40.37;;;9.63;;
19560;SDS011;9927;47.792;10.616;2023-12-07T05:40:05;35.07;;;9.17;;
19560;SDS011;9927;47.792;10.616;2023-12-07T05:42:33;75.40;;;10.73;;
19560;SDS011;9927;47.792;10.616;2023-12-07T05:45:00;90.77;;;9.80;;
19560;SDS011;9927;47.792;10.616;2023-12-07T05:47:28;10.47;;;7.77;;
19560;SDS011;9927;47.792;10.616;2023-12-07T05:49:55;24.77;;;9.50;;
19560;SDS011;9927;47.792;10.616;2023-12-07T05:52:24;14.87;;;9.00;;
19560;SDS011;9927;47.792;10.616;2023-12-07T05:54:52;10.47;;;8.37;;
19560;SDS011;9927;47.792;10.616;2023-12-07T05:57:19;17.37;;;8.40;;
19560;SDS011;9927;47.792;10.616;2023-12-07T05:59:46;23.23;;;8.40;;
19560;SDS011;9927;47.792;10.616;2023-12-07T06:02:14;8.97;;;8.07;;
19560;SDS011;9927;47.792;10.616;2023-12-07T06:04:41;31.53;;;9.00;;
19560;SDS011;9927;47.792;10.616;2023-12-07T06:07:08;53.07;;;9.70;;
19560;SDS011;9927;47.792;10.616;2023-12-07T06:09:35;18.33;;;8.27;;
19560;SDS011;9927;47.792;10.616;2023-12-07T06:12:03;40.47;;;9.73;;
19560;SDS011;9927;47.792;10.616;2023-12-07T06:14:31;40.73;;;9.60;;
19560;SDS011;9927;47.792;10.616;2023-12-07T06:16:58;45.80;;;10.90;;
19560;SDS011;9927;47.792;10.616;2023-12-07T06:19:26;35.27;;;11.73;;
19560;SDS011;9927;47.792;10.616;2023-12-07T06:21:53;15.37;;;9.73;;
19560;SDS011;9927;47.792;10.616;2023-12-07T06:24:20;14.10;;;10.23;;
19560;SDS011;9927;47.792;10.616;2023-12-07T06:26:51;12.00;;;10.63;;
19560;SDS011;9927;47.792;10.616;2023-12-07T06:29:18;11.07;;;9.97;;
19560;SDS011;9927;47.792;10.616;2023-12-07T06:31:46;13.07;;;10.80;;
19560;SDS011;9927;47.792;10.616;2023-12-07T06:34:13;22.70;;;12.00;;
19560;SDS011;9927;47.792;10.616;2023-12-07T06:36:40;12.30;;;10.97;;
19560;SDS011;9927;47.792;10.616;2023-12-07T06:39:08;17.80;;;12.83;;
19560;SDS011;9927;47.792;10.616;2023-12-07T06:41:35;16.50;;;12.47;;
19560;SDS011;9927;47.792;10.616;2023-12-07T06:44:02;21.93;;;14.10;;
19560;SDS011;9927;47.792;10.616;2023-12-07T06:46:30;20.70;;;14.90;;
19560;SDS011;9927;47.792;10.616;2023-12-07T06:48:57;18.87;;;14.63;;
19560;SDS011;9927;47.792;10.616;2023-12-07T06:51:24;18.67;;;12.83;;
19560;SDS011;9927;47.792;10.616;2023-12-07T06:53:52;19.77;;;14.50;;
19560;SDS011;9927;47.792;10.616;2023-12-07T06:56:19;17.80;;;13.20;;
19560;SDS011;9927;47.792;10.616;2023-12-07T06:58:46;19.40;;;13.13;;
19560;SDS011;9927;47.792;10.616;2023-12-07T07:01:13;17.43;;;14.43;;
19560;SDS011;9927;47.792;10.616;2023-12-07T07:03:41;18.13;;;13.33;;
19560;SDS011;9927;47.792;10.616;2023-12-07T07:06:08;21.70;;;15.10;;
19560;SDS011;9927;47.792;10.616;2023-12-07T07:08:35;17.77;;;12.83;;
19560;SDS011;9927;47.792;10.616;2023-12-07T07:11:08;19.73;;;13.63;;
19560;SDS011;9927;47.792;10.616;2023-12-07T07:13:40;18.43;;;14.17;;
19560;SDS011;9927;47.792;10.616;2023-12-07T07:16:08;18.43;;;14.03;;
19560;SDS011;9927;47.792;10.616;2023-12-07T07:18:38;19.93;;;14.77;;
19560;SDS011;9927;47.792;10.616;2023-12-07T07:21:06;20.13;;;14.90;;
19560;SDS011;9927;47.792;10.616;2023-12-07T07:23:35;16.63;;;13.57;;
19560;SDS011;9927;47.792;10.616;2023-12-07T07:26:02;16.43;;;13.23;;
19560;SDS011;9927;47.792;10.616;2023-12-07T07:28:29;16.77;;;13.30;;
19560;SDS011;9927;47.792;10.616;2023-12-07T07:30:57;16.73;;;12.90;;
19560;SDS011;9927;47.792;10.616;2023-12-07T07:33:25;18.10;;;12.90;;
19560;SDS011;9927;47.792;10.616;2023-12-07T07:35:52;15.83;;;12.77;;
19560;SDS011;9927;47.792;10.616;2023-12-07T07:38:21;14.57;;;11.63;;
19560;SDS011;9927;47.792;10.616;2023-12-07T07:40:49;14.73;;;12.10;;
19560;SDS011;9927;47.792;10.616;2023-12-07T07:43:17;17.47;;;13.87;;
19560;SDS011;9927;47.792;10.616;2023-12-07T07:45:44;15.40;;;12.77;;
19560;SDS011;9927;47.792;10.616;2023-12-07T07:48:12;20.67;;;15.00;;
19560;SDS011;9927;47.792;10.616;2023-12-07T07:50:40;18.30;;;13.60;;
19560;SDS011;9927;47.792;10.616;2023-12-07T07:53:07;18.73;;;13.87;;
19560;SDS011;9927;47.792;10.616;2023-12-07T07:55:34;22.00;;;14.23;;
19560;SDS011;9927;47.792;10.616;2023-12-07T07:58:01;17.73;;;13.33;;
19560;SDS011;9927;47.792;10.616;2023-12-07T08:00:29;22.87;;;15.37;;
19560;SDS011;9927;47.792;10.616;2023-12-07T08:02:57;23.33;;;15.70;;
19560;SDS011;9927;47.792;10.616;2023-12-07T08:05:24;18.27;;;13.87;;
19560;SDS011;9927;47.792;10.616;2023-12-07T08:07:52;16.17;;;13.73;;
19560;SDS011;9927;47.792;10.616;2023-12-07T08:10:19;39.63;;;15.03;;
19560;SDS011;9927;47.792;10.616;2023-12-07T08:12:47;19.40;;;13.67;;
19560;SDS011;9927;47.792;10.616;2023-12-07T08:15:14;27.97;;;15.57;;
19560;SDS011;9927;47.792;10.616;2023-12-07T08:17:42;22.53;;;15.10;;
19560;SDS011;9927;47.792;10.616;2023-12-07T08:20:09;24.23;;;14.87;;
19560;SDS011;9927;47.792;10.616;2023-12-07T08:22:37;42.40;;;15.17;;
19560;SDS011;9927;47.792;10.616;2023-12-07T08:25:05;27.87;;;13.50;;
19560;SDS011;9927;47.792;10.616;2023-12-07T08:27:38;68.73;;;14.57;;
19560;SDS011;9927;47.792;10.616;2023-12-07T08:30:06;31.83;;;13.63;;
19560;SDS011;9927;47.792;10.616;2023-12-07T08:32:36;62.57;;;15.63;;
19560;SDS011;9927;47.792;10.616;2023-12-07T08:35:04;44.20;;;15.53;;
19560;SDS011;9927;47.792;10.616;2023-12-07T08:37:32;18.70;;;14.57;;
19560;SDS011;9927;47.792;10.616;2023-12-07T08:40:00;24.20;;;14.67;;
19560;SDS011;9927;47.792;10.616;2023-12-07T08:42:27;37.03;;;17.07;;
19560;SDS011;9927;47.792;10.616;2023-12-07T08:44:54;26.47;;;16.90;;
19560;SDS011;9927;47.792;10.616;2023-12-07T08:47:22;21.23;;;16.20;;
19560;SDS011;9927;47.792;10.616;2023-12-07T08:49:49;17.27;;;14.67;;
19560;SDS011;9927;47.792;10.616;2023-12-07T08:52:18;27.17;;;16.37;;
19560;SDS011;9927;47.792;10.616;2023-12-07T08:55:01;45.27;;;16.50;;
19560;SDS011;9927;47.792;10.616;2023-12-07T08:57:28;53.80;;;17.60;;
19560;SDS011;9927;47.792;10.616;2023-12-07T08:59:56;30.80;;;16.67;;
19560;SDS011;9927;47.792;10.616;2023-12-07T09:02:24;23.97;;;16.23;;
19560;SDS011;9927;47.792;10.616;2023-12-07T09:05:08;30.53;;;16.30;;
19560;SDS011;9927;47.792;10.616;2023-12-07T09:07:35;83.00;;;19.03;;
19560;SDS011;9927;47.792;10.616;2023-12-07T09:10:03;33.53;;;15.57;;
19560;SDS011;9927;47.792;10.616;2023-12-07T09:12:31;28.20;;;15.43;;
19560;SDS011;9927;47.792;10.616;2023-12-07T09:15:05;21.30;;;13.53;;
19560;SDS011;9927;47.792;10.616;2023-12-07T09:17:38;65.17;;;17.67;;
19560;SDS011;9927;47.792;10.616;2023-12-07T09:20:09;33.43;;;16.17;;
19560;SDS011;9927;47.792;10.616;2023-12-07T09:22:44;28.00;;;15.07;;
19560;SDS011;9927;47.792;10.616;2023-12-07T09:25:12;30.50;;;15.23;;
19560;SDS011;9927;47.792;10.616;2023-12-07T09:27:40;16.47;;;13.23;;
19560;SDS011;9927;47.792;10.616;2023-12-07T09:30:08;19.17;;;13.73;;
19560;SDS011;9927;47.792;10.616;2023-12-07T09:32:41;23.80;;;14.83;;
19560;SDS011;9927;47.792;10.616;2023-12-07T09:35:11;18.73;;;14.23;;
19560;SDS011;9927;47.792;10.616;2023-12-07T09:37:46;35.53;;;15.27;;
19560;SDS011;9927;47.792;10.616;2023-12-07T09:40:22;19.97;;;13.73;;
19560;SDS011;9927;47.792;10.616;2023-12-07T09:42:51;14.07;;;12.47;;
19560;SDS011;9927;47.792;10.616;2023-12-07T09:45:20;18.53;;;11.70;;
19560;SDS011;9927;47.792;10.616;2023-12-07T09:47:50;15.03;;;12.60;;
19560;SDS011;9927;47.792;10.616;2023-12-07T09:50:22;13.70;;;12.30;;
19560;SDS011;9927;47.792;10.616;2023-12-07T09:52:51;13.00;;;11.80;;
19560;SDS011;9927;47.792;10.616;2023-12-07T09:55:33;14.07;;;12.67;;
19560;SDS011;9927;47.792;10.616;2023-12-07T09:58:05;13.20;;;12.00;;
19560;SDS011;9927;47.792;10.616;2023-12-07T10:00:35;13.43;;;12.13;;
19560;SDS011;9927;47.792;10.616;2023-12-07T10:03:04;14.70;;;13.20;;
19560;SDS011;9927;47.792;10.616;2023-12-07T10:05:52;14.47;;;13.07;;
19560;SDS011;9927;47.792;10.616;2023-12-07T10:08:28;13.23;;;11.93;;
19560;SDS011;9927;47.792;10.616;2023-12-07T10:11:03;12.83;;;11.53;;
19560;SDS011;9927;47.792;10.616;2023-12-07T10:13:35;13.20;;;11.90;;
19560;SDS011;9927;47.792;10.616;2023-12-07T10:16:13;13.73;;;12.43;;
19560;SDS011;9927;47.792;10.616;2023-12-07T10:18:42;14.40;;;12.97;;
19560;SDS011;9927;47.792;10.616;2023-12-07T10:21:11;15.43;;;13.83;;
19560;SDS011;9927;47.792;10.616;2023-12-07T10:23:41;21.63;;;16.93;;
19560;SDS011;9927;47.792;10.616;2023-12-07T10:26:11;22.73;;;18.30;;
19560;SDS011;9927;47.792;10.616;2023-12-07T10:28:39;23.90;;;19.00;;
19560;SDS011;9927;47.792;10.616;2023-12-07T10:31:09;24.87;;;19.17;;
19560;SDS011;9927;47.792;10.616;2023-12-07T10:33:37;21.30;;;17.23;;
19560;SDS011;9927;47.792;10.616;2023-12-07T10:36:05;22.43;;;18.37;;
19560;SDS011;9927;47.792;10.616;2023-12-07T10:38:33;24.67;;;18.63;;
19560;SDS011;9927;47.792;10.616;2023-12-07T10:41:04;24.17;;;19.37;;
19560;SDS011;9927;47.792;10.616;2023-12-07T10:43:36;23.77;;;19.27;;
19560;SDS011;9927;47.792;10.616;2023-12-07T10:46:05;26.27;;;19.47;;
19560;SDS011;9927;47.792;10.616;2023-12-07T10:48:33;23.33;;;19.10;;
19560;SDS011;9927;47.792;10.616;2023-12-07T10:51:03;24.50;;;18.63;;
19560;SDS011;9927;47.792;10.616;2023-12-07T10:53:40;20.50;;;17.33;;
19560;SDS011;9927;47.792;10.616;2023-12-07T10:56:11;21.93;;;17.53;;
19560;SDS011;9927;47.792;10.616;2023-12-07T10:58:40;20.93;;;16.73;;
19560;SDS011;9927;47.792;10.616;2023-12-07T11:01:08;22.57;;;17.93;;
19560;SDS011;9927;47.792;10.616;2023-12-07T11:03:37;21.57;;;17.63;;
19560;SDS011;9927;47.792;10.616;2023-12-07T11:06:07;24.30;;;18.67;;
19560;SDS011;9927;47.792;10.616;2023-12-07T11:08:39;25.10;;;18.47;;
19560;SDS011;9927;47.792;10.616;2023-12-07T11:11:21;23.50;;;18.27;;
19560;SDS011;9927;47.792;10.616;2023-12-07T11:13:59;24.53;;;19.30;;
19560;SDS011;9927;47.792;10.616;2023-12-07T11:16:32;20.47;;;17.03;;
19560;SDS011;9927;47.792;10.616;2023-12-07T11:19:03;22.77;;;18.07;;
19560;SDS011;9927;47.792;10.616;2023-12-07T11:21:38;22.53;;;18.07;;
19560;SDS011;9927;47.792;10.616;2023-12-07T11:24:05;24.17;;;18.93;;
19560;SDS011;9927;47.792;10.616;2023-12-07T11:26:33;26.30;;;18.80;;
19560;SDS011;9927;47.792;10.616;2023-12-07T11:29:01;22.17;;;17.43;;
19560;SDS011;9927;47.792;10.616;2023-12-07T11:31:28;22.10;;;17.80;;
19560;SDS011;9927;47.792;10.616;2023-12-07T11:34:05;21.77;;;18.47;;
19560;SDS011;9927;47.792;10.616;2023-12-07T11:36:34;22.73;;;18.40;;
19560;SDS011;9927;47.792;10.616;2023-12-07T11:41:44;21.03;;;16.97;;
19560;SDS011;9927;47.792;10.616;2023-12-07T11:44:12;22.67;;;16.97;;
19560;SDS011;9927;47.792;10.616;2023-12-07T11:46:39;21.93;;;17.03;;
19560;SDS011;9927;47.792;10.616;2023-12-07T11:49:07;19.80;;;15.70;;
19560;SDS011;9927;47.792;10.616;2023-12-07T11:51:54;19.57;;;16.77;;
19560;SDS011;9927;47.792;10.616;2023-12-07T11:54:22;19.00;;;15.37;;
19560;SDS011;9927;47.792;10.616;2023-12-07T11:56:56;18.47;;;15.73;;
19560;SDS011;9927;47.792;10.616;2023-12-07T11:59:23;13.53;;;12.17;;
19560;SDS011;9927;47.792;10.616;2023-12-07T12:02:00;10.17;;;9.23;;
19560;SDS011;9927;47.792;10.616;2023-12-07T12:04:33;9.23;;;8.33;;
19560;SDS011;9927;47.792;10.616;2023-12-07T12:07:00;8.33;;;7.63;;
19560;SDS011;9927;47.792;10.616;2023-12-07T12:09:27;8.43;;;7.73;;
19560;SDS011;9927;47.792;10.616;2023-12-07T12:12:15;8.90;;;8.10;;
19560;SDS011;9927;47.792;10.616;2023-12-07T12:14:43;10.57;;;9.47;;
19560;SDS011;9927;47.792;10.616;2023-12-07T12:17:14;8.90;;;8.10;;
19560;SDS011;9927;47.792;10.616;2023-12-07T12:19:42;10.23;;;8.90;;
19560;SDS011;9927;47.792;10.616;2023-12-07T12:22:09;9.00;;;8.20;;
19560;SDS011;9927;47.792;10.616;2023-12-07T12:24:37;9.00;;;8.03;;
19560;SDS011;9927;47.792;10.616;2023-12-07T12:27:07;8.27;;;7.57;;
19560;SDS011;9927;47.792;10.616;2023-12-07T12:29:34;11.40;;;8.50;;
19560;SDS011;9927;47.792;10.616;2023-12-07T12:32:02;10.43;;;9.27;;
19560;SDS011;9927;47.792;10.616;2023-12-07T12:34:34;10.03;;;9.03;;
19560;SDS011;9927;47.792;10.616;2023-12-07T12:37:05;10.63;;;8.83;;
19560;SDS011;9927;47.792;10.616;2023-12-07T12:39:33;10.07;;;8.77;;
19560;SDS011;9927;47.792;10.616;2023-12-07T12:42:04;10.03;;;9.03;;
19560;SDS011;9927;47.792;10.616;2023-12-07T12:44:32;10.10;;;9.10;;
19560;SDS011;9927;47.792;10.616;2023-12-07T12:47:05;11.40;;;9.73;;
19560;SDS011;9927;47.792;10.616;2023-12-07T12:49:41;10.50;;;9.50;;
19560;SDS011;9927;47.792;10.616;2023-12-07T12:52:14;8.83;;;8.13;;
19560;SDS011;9927;47.792;10.616;2023-12-07T12:54:43;9.40;;;8.60;;
19560;SDS011;9927;47.792;10.616;2023-12-07T12:57:11;9.93;;;9.13;;
19560;SDS011;9927;47.792;10.616;2023-12-07T12:59:38;8.77;;;7.97;;
19560;SDS011;9927;47.792;10.616;2023-12-07T13:02:06;8.70;;;7.93;;
19560;SDS011;9927;47.792;10.616;2023-12-07T13:04:37;8.40;;;7.63;;
19560;SDS011;9927;47.792;10.616;2023-12-07T13:07:08;8.70;;;8.00;;
19560;SDS011;9927;47.792;10.616;2023-12-07T13:09:36;8.70;;;7.90;;
19560;SDS011;9927;47.792;10.616;2023-12-07T13:12:04;9.87;;;8.90;;
19560;SDS011;9927;47.792;10.616;2023-12-07T13:14:32;12.10;;;10.80;;
19560;SDS011;9927;47.792;10.616;2023-12-07T13:17:06;13.43;;;11.13;;
19560;SDS011;9927;47.792;10.616;2023-12-07T13:19:36;9.70;;;8.70;;
19560;SDS011;9927;47.792;10.616;2023-12-07T13:22:03;10.90;;;9.80;;
19560;SDS011;9927;47.792;10.616;2023-12-07T13:24:31;9.50;;;8.70;;
19560;SDS011;9927;47.792;10.616;2023-12-07T13:26:58;8.73;;;8.03;;
19560;SDS011;9927;47.792;10.616;2023-12-07T13:29:27;8.90;;;8.10;;
19560;SDS011;9927;47.792;10.616;2023-12-07T13:32:03;8.90;;;8.10;;
19560;SDS011;9927;47.792;10.616;2023-12-07T13:34:31;8.90;;;8.00;;
19560;SDS011;9927;47.792;10.616;2023-12-07T13:36:58;8.43;;;7.73;;
19560;SDS011;9927;47.792;10.616;2023-12-07T13:39:25;8.50;;;7.80;;
19560;SDS011;9927;47.792;10.616;2023-12-07T13:41:58;8.83;;;8.10;;
19560;SDS011;9927;47.792;10.616;2023-12-07T13:44:30;9.00;;;8.13;;
19560;SDS011;9927;47.792;10.616;2023-12-07T13:46:59;8.67;;;7.87;;
19560;SDS011;9927;47.792;10.616;2023-12-07T13:49:27;8.40;;;7.67;;
19560;SDS011;9927;47.792;10.616;2023-12-07T13:52:01;8.10;;;7.40;;
19560;SDS011;9927;47.792;10.616;2023-12-07T13:54:36;8.07;;;7.37;;
19560;SDS011;9927;47.792;10.616;2023-12-07T13:57:20;8.27;;;7.57;;
19560;SDS011;9927;47.792;10.616;2023-12-07T13:59:48;11.00;;;10.00;;
19560;SDS011;9927;47.792;10.616;2023-12-07T14:02:17;11.37;;;10.37;;
19560;SDS011;9927;47.792;10.616;2023-12-07T14:04:45;8.80;;;8.00;;
19560;SDS011;9927;47.792;10.616;2023-12-07T14:07:17;9.30;;;8.50;;
19560;SDS011;9927;47.792;10.616;2023-12-07T14:09:46;8.57;;;7.80;;
19560;SDS011;9927;47.792;10.616;2023-12-07T14:12:24;8.20;;;7.50;;
19560;SDS011;9927;47.792;10.616;2023-12-07T14:14:55;8.60;;;8.00;;
19560;SDS011;9927;47.792;10.616;2023-12-07T14:17:23;9.03;;;8.23;;
19560;SDS011;9927;47.792;10.616;2023-12-07T14:19:53;9.43;;;8.53;;
19560;SDS011;9927;47.792;10.616;2023-12-07T14:22:36;8.80;;;7.90;;
19560;SDS011;9927;47.792;10.616;2023-12-07T14:25:03;10.00;;;9.00;;
19560;SDS011;9927;47.792;10.616;2023-12-07T14:27:31;10.07;;;9.03;;
19560;SDS011;9927;47.792;10.616;2023-12-07T14:29:58;9.87;;;8.90;;
19560;SDS011;9927;47.792;10.616;2023-12-07T14:32:26;10.17;;;9.17;;
19560;SDS011;9927;47.792;10.616;2023-12-07T14:34:54;10.67;;;9.53;;
19560;SDS011;9927;47.792;10.616;2023-12-07T14:37:22;10.30;;;9.40;;
19560;SDS011;9927;47.792;10.616;2023-12-07T14:39:50;11.10;;;9.83;;
19560;SDS011;9927;47.792;10.616;2023-12-07T14:42:17;11.23;;;10.13;;
19560;SDS011;9927;47.792;10.616;2023-12-07T14:44:44;12.77;;;10.67;;
19560;SDS011;9927;47.792;10.616;2023-12-07T14:47:12;11.83;;;10.67;;
19560;SDS011;9927;47.792;10.616;2023-12-07T14:49:39;11.03;;;9.93;;
19560;SDS011;9927;47.792;10.616;2023-12-07T14:52:07;12.73;;;10.80;;
19560;SDS011;9927;47.792;10.616;2023-12-07T14:54:37;12.80;;;10.60;;
19560;SDS011;9927;47.792;10.616;2023-12-07T14:57:04;12.50;;;11.20;;
19560;SDS011;9927;47.792;10.616;2023-12-07T14:59:34;12.77;;;10.83;;
19560;SDS011;9927;47.792;10.616;2023-12-07T15:02:02;13.17;;;11.37;;
19560;SDS011;9927;47.792;10.616;2023-12-07T15:04:29;11.13;;;9.93;;
19560;SDS011;9927;47.792;10.616;2023-12-07T15:07:01;13.10;;;11.57;;
19560;SDS011;9927;47.792;10.616;2023-12-07T15:09:30;13.03;;;11.77;;
19560;SDS011;9927;47.792;10.616;2023-12-07T15:11:58;11.40;;;10.30;;
19560;SDS011;9927;47.792;10.616;2023-12-07T15:14:26;13.50;;;10.60;;
19560;SDS011;9927;47.792;10.616;2023-12-07T15:17:04;20.33;;;14.60;;
19560;SDS011;9927;47.792;10.616;2023-12-07T15:19:36;17.20;;;13.77;;
19560;SDS011;9927;47.792;10.616;2023-12-07T15:22:04;14.27;;;12.73;;
19560;SDS011;9927;47.792;10.616;2023-12-07T15:24:31;13.07;;;11.70;;
19560;SDS011;9927;47.792;10.616;2023-12-07T15:27:03;12.97;;;11.43;;
19560;SDS011;9927;47.792;10.616;2023-12-07T15:29:31;13.53;;;11.60;;
19560;SDS011;9927;47.792;10.616;2023-12-07T15:32:01;13.23;;;11.93;;
19560;SDS011;9927;47.792;10.616;2023-12-07T15:34:29;14.87;;;12.27;;
19560;SDS011;9927;47.792;10.616;2023-12-07T15:37:06;14.90;;;12.53;;
19560;SDS011;9927;47.792;10.616;2023-12-07T15:39:34;14.37;;;12.80;;
19560;SDS011;9927;47.792;10.616;2023-12-07T15:42:01;18.30;;;12.93;;
19560;SDS011;9927;47.792;10.616;2023-12-07T15:44:29;15.03;;;12.97;;
19560;SDS011;9927;47.792;10.616;2023-12-07T15:46:58;21.60;;;12.10;;
19560;SDS011;9927;47.792;10.616;2023-12-07T15:49:26;15.37;;;12.00;;
19560;SDS011;9927;47.792;10.616;2023-12-07T15:51:54;13.77;;;12.27;;
19560;SDS011;9927;47.792;10.616;2023-12-07T16:05:35;14.67;;;12.90;;
19560;SDS011;9927;47.792;10.616;2023-12-07T16:08:02;18.37;;;14.80;;
19560;SDS011;9927;47.792;10.616;2023-12-07T16:10:30;16.23;;;13.30;;
19560;SDS011;9927;47.792;10.616;2023-12-07T16:12:57;20.23;;;15.70;;
19560;SDS011;9927;47.792;10.616;2023-12-07T16:15:24;32.63;;;22.10;;
19560;SDS011;9927;47.792;10.616;2023-12-07T16:17:52;35.60;;;29.63;;
19560;SDS011;9927;47.792;10.616;2023-12-07T16:20:19;40.97;;;36.50;;
19560;SDS011;9927;47.792;10.616;2023-12-07T16:22:47;32.50;;;29.13;;
19560;SDS011;9927;47.792;10.616;2023-12-07T16:25:14;27.73;;;24.50;;
19560;SDS011;9927;47.792;10.616;2023-12-07T16:27:48;18.87;;;16.40;;
19560;SDS011;9927;47.792;10.616;2023-12-07T16:30:16;19.97;;;16.73;;
19560;SDS011;9927;47.792;10.616;2023-12-07T16:32:44;17.03;;;14.17;;
19560;SDS011;9927;47.792;10.616;2023-12-07T16:35:13;15.00;;;13.17;;
19560;SDS011;9927;47.792;10.616;2023-12-07T16:37:41;13.60;;;12.17;;
19560;SDS011;9927;47.792;10.616;2023-12-07T16:40:09;13.57;;;11.97;;
19560;SDS011;9927;47.792;10.616;2023-12-07T16:42:36;12.60;;;11.30;;
19560;SDS011;9927;47.792;10.616;2023-12-07T16:45:05;12.23;;;11.03;;
19560;SDS011;9927;47.792;10.616;2023-12-07T16:47:35;16.10;;;12.73;;
19560;SDS011;9927;47.792;10.616;2023-12-07T16:50:03;14.53;;;13.03;;
19560;SDS011;9927;47.792;10.616;2023-12-07T16:52:30;15.77;;;14.17;;
19560;SDS011;9927;47.792;10.616;2023-12-07T16:54:59;15.03;;;13.33;;
19560;SDS011;9927;47.792;10.616;2023-12-07T16:57:26;12.03;;;10.83;;
19560;SDS011;9927;47.792;10.616;2023-12-07T16:59:54;11.70;;;10.60;;
19560;SDS011;9927;47.792;10.616;2023-12-07T17:02:21;12.90;;;11.60;;
19560;SDS011;9927;47.792;10.616;2023-12-07T17:04:50;11.87;;;10.77;;
19560;SDS011;9927;47.792;10.616;2023-12-07T17:07:17;11.30;;;10.20;;
19560;SDS011;9927;47.792;10.616;2023-12-07T17:09:44;13.00;;;11.67;;
19560;SDS011;9927;47.792;10.616;2023-12-07T17:12:12;13.20;;;11.90;;
19560;SDS011;9927;47.792;10.616;2023-12-07T17:14:39;17.40;;;13.63;;
19560;SDS011;9927;47.792;10.616;2023-12-07T17:17:09;22.33;;;16.90;;
19560;SDS011;9927;47.792;10.616;2023-12-07T17:19:36;17.37;;;12.43;;
19560;SDS011;9927;47.792;10.616;2023-12-07T17:22:16;23.17;;;13.73;;
19560;SDS011;9927;47.792;10.616;2023-12-07T17:24:43;32.83;;;12.97;;
19560;SDS011;9927;47.792;10.616;2023-12-07T17:27:11;15.53;;;11.63;;
19560;SDS011;9927;47.792;10.616;2023-12-07T17:29:38;10.30;;;9.40;;
19560;SDS011;9927;47.792;10.616;2023-12-07T17:32:05;7.60;;;7.10;;
19560;SDS011;9927;47.792;10.616;2023-12-07T17:34:33;9.40;;;8.53;;
19560;SDS011;9927;47.792;10.616;2023-12-07T17:37:00;11.70;;;10.60;;
19560;SDS011;9927;47.792;10.616;2023-12-07T17:39:29;11.13;;;10.07;;
19560;SDS011;9927;47.792;10.616;2023-12-07T17:41:56;13.13;;;11.00;;
19560;SDS011;9927;47.792;10.616;2023-12-07T17:44:24;17.10;;;12.00;;
19560;SDS011;9927;47.792;10.616;2023-12-07T17:46:51;18.17;;;13.10;;
19560;SDS011;9927;47.792;10.616;2023-12-07T17:49:19;12.97;;;11.63;;
19560;SDS011;9927;47.792;10.616;2023-12-07T17:51:46;16.43;;;13.03;;
19560;SDS011;9927;47.792;10.616;2023-12-07T17:54:13;16.93;;;13.23;;
19560;SDS011;9927;47.792;10.616;2023-12-07T17:56:42;23.30;;;12.27;;
19560;SDS011;9927;47.792;10.616;2023-12-07T17:59:10;38.10;;;13.30;;
19560;SDS011;9927;47.792;10.616;2023-12-07T18:01:39;13.13;;;11.77;;
19560;SDS011;9927;47.792;10.616;2023-12-07T18:04:06;13.57;;;12.20;;
19560;SDS011;9927;47.792;10.616;2023-12-07T18:06:34;15.10;;;12.47;;
19560;SDS011;9927;47.792;10.616;2023-12-07T18:09:01;15.27;;;13.47;;
19560;SDS011;9927;47.792;10.616;2023-12-07T18:11:29;27.00;;;21.53;;
19560;SDS011;9927;47.792;10.616;2023-12-07T18:13:56;14.90;;;13.37;;
19560;SDS011;9927;47.792;10.616;2023-12-07T18:16:23;14.30;;;12.80;;
19560;SDS011;9927;47.792;10.616;2023-12-07T18:18:51;14.73;;;13.20;;
19560;SDS011;9927;47.792;10.616;2023-12-07T18:21:18;14.90;;;12.63;;
19560;SDS011;9927;47.792;10.616;2023-12-07T18:23:46;13.27;;;11.90;;
19560;SDS011;9927;47.792;10.616;2023-12-07T18:26:14;15.80;;;14.03;;
19560;SDS011;9927;47.792;10.616;2023-12-07T18:28:41;14.77;;;13.27;;
19560;SDS011;9927;47.792;10.616;2023-12-07T18:31:08;15.43;;;13.83;;
19560;SDS011;9927;47.792;10.616;2023-12-07T18:33:38;16.97;;;15.17;;
19560;SDS011;9927;47.792;10.616;2023-12-07T18:36:06;18.13;;;14.47;;
19560;SDS011;9927;47.792;10.616;2023-12-07T18:38:34;15.83;;;13.57;;
19560;SDS011;9927;47.792;10.616;2023-12-07T18:41:01;25.03;;;14.50;;
19560;SDS011;9927;47.792;10.616;2023-12-07T18:43:29;19.37;;;14.33;;
19560;SDS011;9927;47.792;10.616;2023-12-07T18:45:56;16.00;;;14.40;;
19560;SDS011;9927;47.792;10.616;2023-12-07T18:48:23;18.20;;;14.77;;
19560;SDS011;9927;47.792;10.616;2023-12-07T18:50:51;16.20;;;14.50;;